Historyczne dane pomiarowe

Dodano dane terminowe – wersja testowa.

Dane z okresu 1951-2019

Wersja bazy: 1.34 [2019-03-16, lista zmian], aktualizacja planowana na 2019-04-15

Dane meteo z obszaru Polski uzyskane na podstawie danych udostępnionych przez Instytut Meteorologii i Gospodarki Wodnej – Państwowy Instytut Badawczy.

 

Wybierz Datę:    

       

TemperaturaWilgotnośćZachmurzenieWiatrCiśnienieWidzialnośćZjawiska
 Data    tng td wb rh cc ccl cl cm ch dir g1 g2 mslp ppp      
1999-06-30 00:00:00 14.5--- 13.2 13.792wxwxwxwx2wx--1019.7 995.1 0.0---wx
1999-06-30 01:00:00 13.3--- 11.9 12.591wxwxwxwx2wx--1019.5 994.8----wx
1999-06-30 02:00:00 12.8--- 11.9 12.394wxwxwxwx2wx--1019.4 994.7----wx
1999-06-30 03:00:00 12.9--- 11.9 12.393wxwxwxwxwx2wx--1019.3 994.6----wx
1999-06-30 04:00:00 13.3--- 12.3 12.793wxwxwxwxwx1wx--1019.4 994.7----wx
1999-06-30 05:00:00 16.0--- 14.2 14.989wxwxwx1wx--1019.3 994.8----wx
1999-06-30 06:00:00 18.1--- 14.2 15.778wxwxwxwx1wx--1019.0 994.7 0.0---wx
1999-06-30 07:00:00 20.6--- 13.6 16.364wxwxwxwx1wx--1018.8 994.7----wx
1999-06-30 08:00:00 21.2--- 10.4 14.950wxwxwxwx1wx--1018.5 994.5----wx
1999-06-30 09:00:00 23.0--- 14.9 17.960wxwxwxwx2wx--1018.4 994.5----wx
1999-06-30 10:00:00 24.3--- 14.7 18.255wxwxwxwx2wx--1018.0 994.2----wx
1999-06-30 11:00:00 24.5--- 16.2 19.160wxwxwxwx3wx--1017.7 994.0----wx
1999-06-30 12:00:00 25.2--- 15.0 18.753wxwxwxwx4wx--1017.5 993.8 0.0---wx
1999-06-30 13:00:00 25.6--- 16.0 19.456wxwxwxwx2wx--1016.8 993.2----wx
1999-06-30 14:00:00 25.8--- 14.6 18.750wxwxwxwx3wx--1016.2 992.6----wx
1999-06-30 15:00:00 25.7--- 13.7 18.248wxwxwxwx2wx--1016.2 992.6----wx
1999-06-30 16:00:00 25.6--- 13.6 18.147wxwxwx2wx--1015.8 992.2----wx
1999-06-30 17:00:00 24.8--- 15.3 18.755wxwxwx2wx--1015.7 992.0----wx
1999-06-30 18:00:00 23.2--- 15.9 18.563wxwxwx1wx--1015.9 992.1 0.0---wx
1999-06-30 19:00:00 20.0--- 16.2 17.679wxwxwx2wx--1016.4 992.3----wx
1999-06-30 20:00:00 19.2--- 15.7 17.080wxwxwx3wx--1017.2 993.0----wx
1999-06-30 21:00:00 17.0--- 14.6 15.586wxwxwxwx3wx--1017.7 993.4----wx
1999-06-30 22:00:00 16.4--- 14.3 15.187wxwxwx3wx--1017.8 993.4----wx
1999-06-30 23:00:00 15.2--- 13.4 14.189wxwxwx2wx--1017.5 993.0----wx

 

Źródłem pochodzenia danych jest Instytut Meteorologii i Gospodarki Wodnej – Państwowy Instytut Badawczy. Dane Instytutu Meteorologii i Gospodarki Wodnej – Państwowego Instytutu Badawczego zostały przetworzone.

Dane źródłowe można odnaleźć na stronie https://dane.imgw.pl